Terminal Aerodrome Forecast
Issued by NWS Sterling, VA

Current Version | Previous Version | Graphics & Text | Print | Product List | Glossary On
Versions: 1 2 3 4 5 6 7 8 9 10 11 12 13 14 15 16 17 18 19 20 21 22 23
000
FTUS41 KLWX 302300
TAFDCA
TAF
KDCA 302329Z 3100/3124 31022G35KT P6SM SCT060
     FM310500 31018G26KT P6SM FEW250
     FM311500 31012G21KT P6SM FEW050
     FM312100 29009KT P6SM FEW050
     FM312300 29005KT P6SM SCT050=

USA.gov is the U.S. government's official web portal to all federal, state and local government web resources and services.